Terminal Aerodrome Forecast
Issued by NWS

Home | Current Version | Previous Version | Text Only | Print | Product List | Glossary Off
Versions: 1 2 3 4 5 6 7 8 9 10 11 12 13 14 15 16 17 18 19 20 21 22 23 24 25 26 27 28 29

000
FTUS43 KPAH 042336
TAFOWB
TAF
KOWB 042336Z 0500/0524 VRB06KT 6SM -SHRA BR SCT060 BKN120
      TEMPO 0500/0502 4SM -TSRA BKN050CB
     FM050200 01004KT P6SM SCT100 BKN250
     FM050900 06004KT P6SM VCSH SCT050 BKN150
     FM051500 14006KT P6SM VCSH SCT040 BKN080 PROB30 0515/0521 3SM
      TSRA BKN035CB=

USA.gov is the U.S. government's official web portal to all federal, state and local government web resources and services.